Cassadaga, New York
Current Conditions -  °F | °C
As of 12:39 AM on Monday 22 Dec 2014 (Local Time) from KDKK Reporting Station
Scattered Clouds Scattered Clouds  
Wind Chill: 23°   Ceiling: Unl
Heat Index: 28°   Visibility: 10mi
Dew Point: 22°   Wind: 5mph
Humidity: 78%   Direction: 70°ENE
Pressure: 30.25"   Gusts: NA
Location:  42.34°N, 79.31°W
Report Text: KDKK 220539Z AUTO 07004KT 10SM SCT024 M02/M06 A3025 RMK AO2 T10221056 $
Loading
Personal Weather Stations






























Interactive Weather Map New forecast layout! Learn more

10-Day Weather Forecast

Advertisements
Track Severe Weather on mobile